sensor_id;sensor_type;location;lat;lon;timestamp;pressure;altitude;pressure_sealevel;temperature;humidity
37878;BME280;23715;53.652;8.516;2023-04-26T00:03:39;101629.20;;;5.92;100.00
37878;BME280;23715;53.652;8.516;2023-04-26T00:08:38;101641.70;;;5.83;100.00
37878;BME280;23715;53.652;8.516;2023-04-26T00:13:39;101637.11;;;6.11;100.00
37878;BME280;23715;53.652;8.516;2023-04-26T00:18:39;101640.91;;;5.98;100.00
37878;BME280;23715;53.652;8.516;2023-04-26T00:23:38;101626.06;;;6.26;100.00
37878;BME280;23715;53.652;8.516;2023-04-26T00:28:39;101636.19;;;5.86;100.00
37878;BME280;23715;53.652;8.516;2023-04-26T00:33:39;101642.00;;;5.85;100.00
37878;BME280;23715;53.652;8.516;2023-04-26T00:38:38;101631.16;;;6.06;100.00
37878;BME280;23715;53.652;8.516;2023-04-26T00:43:39;101640.03;;;5.89;100.00
37878;BME280;23715;53.652;8.516;2023-04-26T00:48:39;101644.08;;;5.72;100.00
37878;BME280;23715;53.652;8.516;2023-04-26T00:53:39;101654.80;;;5.87;100.00
37878;BME280;23715;53.652;8.516;2023-04-26T00:58:38;101646.16;;;5.91;100.00
37878;BME280;23715;53.652;8.516;2023-04-26T01:03:38;101656.05;;;5.89;100.00
37878;BME280;23715;53.652;8.516;2023-04-26T01:08:37;101649.67;;;5.92;100.00
37878;BME280;23715;53.652;8.516;2023-04-26T01:13:37;101646.64;;;5.82;100.00
37878;BME280;23715;53.652;8.516;2023-04-26T01:18:36;101650.64;;;5.82;100.00
37878;BME280;23715;53.652;8.516;2023-04-26T01:23:36;101660.24;;;5.68;100.00
37878;BME280;23715;53.652;8.516;2023-04-26T01:28:36;101658.02;;;5.94;100.00
37878;BME280;23715;53.652;8.516;2023-04-26T01:33:36;101671.77;;;5.78;100.00
37878;BME280;23715;53.652;8.516;2023-04-26T01:38:36;101659.47;;;5.66;100.00
37878;BME280;23715;53.652;8.516;2023-04-26T01:43:35;101671.41;;;5.77;100.00
37878;BME280;23715;53.652;8.516;2023-04-26T01:48:34;101663.91;;;5.92;100.00
37878;BME280;23715;53.652;8.516;2023-04-26T01:53:35;101660.06;;;5.89;100.00
37878;BME280;23715;53.652;8.516;2023-04-26T01:58:37;101650.63;;;5.99;100.00
37878;BME280;23715;53.652;8.516;2023-04-26T02:03:36;101648.50;;;6.15;100.00
37878;BME280;23715;53.652;8.516;2023-04-26T02:08:36;101664.94;;;5.98;100.00
37878;BME280;23715;53.652;8.516;2023-04-26T02:13:35;101655.94;;;5.66;100.00
37878;BME280;23715;53.652;8.516;2023-04-26T02:18:35;101651.02;;;5.92;100.00
37878;BME280;23715;53.652;8.516;2023-04-26T02:23:35;101656.67;;;6.03;100.00
37878;BME280;23715;53.652;8.516;2023-04-26T02:28:34;101665.55;;;5.95;100.00
37878;BME280;23715;53.652;8.516;2023-04-26T02:33:34;101674.80;;;6.38;100.00
37878;BME280;23715;53.652;8.516;2023-04-26T02:38:34;101665.13;;;6.60;100.00
37878;BME280;23715;53.652;8.516;2023-04-26T02:43:35;101661.17;;;6.75;100.00
37878;BME280;23715;53.652;8.516;2023-04-26T02:48:35;101658.82;;;6.45;100.00
37878;BME280;23715;53.652;8.516;2023-04-26T02:53:34;101665.23;;;6.10;100.00
37878;BME280;23715;53.652;8.516;2023-04-26T02:58:34;101654.00;;;6.03;100.00
37878;BME280;23715;53.652;8.516;2023-04-26T03:03:33;101647.47;;;6.09;100.00
37878;BME280;23715;53.652;8.516;2023-04-26T03:08:34;101646.53;;;6.34;100.00
37878;BME280;23715;53.652;8.516;2023-04-26T03:13:34;101651.22;;;6.54;100.00
37878;BME280;23715;53.652;8.516;2023-04-26T03:18:34;101642.27;;;5.81;100.00
37878;BME280;23715;53.652;8.516;2023-04-26T03:23:36;101651.01;;;5.58;100.00
37878;BME280;23715;53.652;8.516;2023-04-26T03:28:35;101646.86;;;5.86;100.00
37878;BME280;23715;53.652;8.516;2023-04-26T03:33:35;101640.42;;;6.08;100.00
37878;BME280;23715;53.652;8.516;2023-04-26T03:38:36;101632.34;;;6.00;100.00
37878;BME280;23715;53.652;8.516;2023-04-26T03:43:36;101628.06;;;6.14;100.00
37878;BME280;23715;53.652;8.516;2023-04-26T03:48:36;101634.17;;;6.16;100.00
37878;BME280;23715;53.652;8.516;2023-04-26T03:53:36;101638.16;;;6.00;100.00
37878;BME280;23715;53.652;8.516;2023-04-26T03:58:36;101640.77;;;6.01;100.00
37878;BME280;23715;53.652;8.516;2023-04-26T04:03:36;101631.94;;;5.99;100.00
37878;BME280;23715;53.652;8.516;2023-04-26T04:08:35;101630.95;;;6.18;100.00
37878;BME280;23715;53.652;8.516;2023-04-26T04:13:36;101631.25;;;5.87;100.00
37878;BME280;23715;53.652;8.516;2023-04-26T04:18:35;101634.07;;;5.84;100.00
37878;BME280;23715;53.652;8.516;2023-04-26T04:23:35;101641.08;;;5.78;100.00
37878;BME280;23715;53.652;8.516;2023-04-26T04:28:37;101638.82;;;6.12;100.00
37878;BME280;23715;53.652;8.516;2023-04-26T04:33:38;101643.45;;;6.17;100.00
37878;BME280;23715;53.652;8.516;2023-04-26T04:38:39;101645.91;;;6.29;100.00
37878;BME280;23715;53.652;8.516;2023-04-26T04:43:40;101665.88;;;5.80;100.00
37878;BME280;23715;53.652;8.516;2023-04-26T04:48:40;101669.77;;;5.65;100.00
37878;BME280;23715;53.652;8.516;2023-04-26T04:53:40;101665.20;;;5.67;100.00
37878;BME280;23715;53.652;8.516;2023-04-26T04:58:40;101658.06;;;6.19;100.00
37878;BME280;23715;53.652;8.516;2023-04-26T05:03:40;101657.44;;;6.14;100.00
37878;BME280;23715;53.652;8.516;2023-04-26T05:08:40;101659.20;;;5.89;100.00
37878;BME280;23715;53.652;8.516;2023-04-26T05:13:40;101649.42;;;6.14;100.00
37878;BME280;23715;53.652;8.516;2023-04-26T05:18:40;101651.68;;;6.37;100.00
37878;BME280;23715;53.652;8.516;2023-04-26T05:23:40;101650.36;;;6.69;100.00
37878;BME280;23715;53.652;8.516;2023-04-26T05:28:39;101655.70;;;6.85;100.00
37878;BME280;23715;53.652;8.516;2023-04-26T05:33:57;101657.25;;;6.73;100.00
37878;BME280;23715;53.652;8.516;2023-04-26T05:39:01;101674.25;;;6.72;100.00
37878;BME280;23715;53.652;8.516;2023-04-26T05:44:02;101681.81;;;6.32;100.00
37878;BME280;23715;53.652;8.516;2023-04-26T05:49:03;101698.51;;;5.94;100.00
37878;BME280;23715;53.652;8.516;2023-04-26T05:54:03;101688.65;;;6.86;100.00
37878;BME280;23715;53.652;8.516;2023-04-26T05:59:03;101690.98;;;6.35;100.00
37878;BME280;23715;53.652;8.516;2023-04-26T06:04:04;101695.32;;;6.54;100.00
37878;BME280;23715;53.652;8.516;2023-04-26T06:09:06;101699.32;;;6.38;100.00
37878;BME280;23715;53.652;8.516;2023-04-26T06:14:06;101686.31;;;6.48;100.00
37878;BME280;23715;53.652;8.516;2023-04-26T06:19:05;101690.98;;;6.35;100.00
37878;BME280;23715;53.652;8.516;2023-04-26T06:24:05;101697.07;;;6.30;100.00
37878;BME280;23715;53.652;8.516;2023-04-26T06:29:06;101687.28;;;6.62;100.00
37878;BME280;23715;53.652;8.516;2023-04-26T06:34:06;101688.85;;;6.42;100.00
37878;BME280;23715;53.652;8.516;2023-04-26T06:39:06;101693.98;;;6.54;100.00
37878;BME280;23715;53.652;8.516;2023-04-26T06:44:05;101706.76;;;6.64;100.00
37878;BME280;23715;53.652;8.516;2023-04-26T06:49:05;101748.23;;;5.53;100.00
37878;BME280;23715;53.652;8.516;2023-04-26T06:54:04;101751.77;;;6.14;100.00
37878;BME280;23715;53.652;8.516;2023-04-26T06:59:05;101758.17;;;6.36;100.00
37878;BME280;23715;53.652;8.516;2023-04-26T07:04:05;101761.59;;;6.14;100.00
37878;BME280;23715;53.652;8.516;2023-04-26T07:09:05;101753.20;;;6.37;100.00
37878;BME280;23715;53.652;8.516;2023-04-26T07:14:05;101742.71;;;6.75;100.00
37878;BME280;23715;53.652;8.516;2023-04-26T07:19:05;101742.10;;;7.63;100.00
37878;BME280;23715;53.652;8.516;2023-04-26T07:24:04;101733.16;;;7.49;100.00
37878;BME280;23715;53.652;8.516;2023-04-26T07:29:05;101736.78;;;7.24;100.00
37878;BME280;23715;53.652;8.516;2023-04-26T07:34:05;101746.34;;;6.74;100.00
37878;BME280;23715;53.652;8.516;2023-04-26T07:39:04;101754.05;;;6.71;100.00
37878;BME280;23715;53.652;8.516;2023-04-26T07:44:04;101753.11;;;6.72;100.00
37878;BME280;23715;53.652;8.516;2023-04-26T07:49:03;101753.80;;;7.23;100.00
37878;BME280;23715;53.652;8.516;2023-04-26T07:54:03;101753.55;;;7.51;100.00
37878;BME280;23715;53.652;8.516;2023-04-26T07:59:02;101753.30;;;8.15;100.00
37878;BME280;23715;53.652;8.516;2023-04-26T08:04:02;101757.11;;;7.66;100.00
37878;BME280;23715;53.652;8.516;2023-04-26T08:09:02;101764.34;;;7.34;100.00
37878;BME280;23715;53.652;8.516;2023-04-26T08:14:02;101758.22;;;7.78;100.00
37878;BME280;23715;53.652;8.516;2023-04-26T08:19:02;101769.24;;;7.34;100.00
37878;BME280;23715;53.652;8.516;2023-04-26T08:24:01;101768.30;;;7.66;100.00
37878;BME280;23715;53.652;8.516;2023-04-26T08:29:01;101764.07;;;8.44;100.00
37878;BME280;23715;53.652;8.516;2023-04-26T08:34:00;101764.61;;;8.20;100.00
37878;BME280;23715;53.652;8.516;2023-04-26T08:39:00;101765.36;;;8.15;100.00
37878;BME280;23715;53.652;8.516;2023-04-26T08:43:59;101755.34;;;8.33;100.00
37878;BME280;23715;53.652;8.516;2023-04-26T08:50:02;101759.16;;;8.36;100.00
37878;BME280;23715;53.652;8.516;2023-04-26T08:54:10;101752.36;;;8.16;100.00
37878;BME280;23715;53.652;8.516;2023-04-26T08:59:10;101755.03;;;8.30;100.00
37878;BME280;23715;53.652;8.516;2023-04-26T09:04:09;101769.33;;;7.86;100.00
37878;BME280;23715;53.652;8.516;2023-04-26T09:09:10;101760.22;;;8.33;100.00
37878;BME280;23715;53.652;8.516;2023-04-26T09:14:11;101769.77;;;8.30;100.00
37878;BME280;23715;53.652;8.516;2023-04-26T09:19:10;101770.51;;;8.04;100.00
37878;BME280;23715;53.652;8.516;2023-04-26T09:24:10;101782.41;;;8.14;100.00
37878;BME280;23715;53.652;8.516;2023-04-26T09:29:13;101781.26;;;8.32;100.00
37878;BME280;23715;53.652;8.516;2023-04-26T09:34:11;101775.27;;;8.65;100.00
37878;BME280;23715;53.652;8.516;2023-04-26T09:39:11;101774.79;;;8.44;100.00
37878;BME280;23715;53.652;8.516;2023-04-26T09:44:20;101789.83;;;8.01;100.00
37878;BME280;23715;53.652;8.516;2023-04-26T09:49:20;101783.91;;;8.48;100.00
37878;BME280;23715;53.652;8.516;2023-04-26T09:54:20;101772.49;;;8.66;100.00
37878;BME280;23715;53.652;8.516;2023-04-26T09:59:21;101791.28;;;8.52;100.00
37878;BME280;23715;53.652;8.516;2023-04-26T10:04:25;101791.84;;;8.57;100.00
37878;BME280;23715;53.652;8.516;2023-04-26T10:09:21;101791.27;;;8.66;100.00
37878;BME280;23715;53.652;8.516;2023-04-26T10:14:21;101786.56;;;8.55;100.00
37878;BME280;23715;53.652;8.516;2023-04-26T10:19:20;101782.19;;;9.10;100.00
37878;BME280;23715;53.652;8.516;2023-04-26T10:24:21;101787.42;;;8.63;100.00
37878;BME280;23715;53.652;8.516;2023-04-26T10:29:21;101796.23;;;8.44;100.00
37878;BME280;23715;53.652;8.516;2023-04-26T10:34:21;101787.34;;;8.72;100.00
37878;BME280;23715;53.652;8.516;2023-04-26T10:39:20;101788.40;;;8.69;100.00
37878;BME280;23715;53.652;8.516;2023-04-26T10:44:36;101793.11;;;8.21;100.00
37878;BME280;23715;53.652;8.516;2023-04-26T10:49:44;101803.83;;;8.21;100.00
37878;BME280;23715;53.652;8.516;2023-04-26T10:55:00;101818.66;;;8.12;100.00
37878;BME280;23715;53.652;8.516;2023-04-26T11:05:10;101806.93;;;8.29;100.00
37878;BME280;23715;53.652;8.516;2023-04-26T11:10:09;101805.33;;;8.55;100.00
37878;BME280;23715;53.652;8.516;2023-04-26T11:15:11;101796.81;;;8.77;100.00
37878;BME280;23715;53.652;8.516;2023-04-26T11:20:14;101795.52;;;9.12;100.00
37878;BME280;23715;53.652;8.516;2023-04-26T11:25:12;101802.09;;;8.86;100.00
37878;BME280;23715;53.652;8.516;2023-04-26T11:30:13;101804.67;;;8.73;100.00
37878;BME280;23715;53.652;8.516;2023-04-26T11:35:13;101803.89;;;8.50;100.00
37878;BME280;23715;53.652;8.516;2023-04-26T11:40:14;101794.50;;;8.93;100.00
37878;BME280;23715;53.652;8.516;2023-04-26T11:45:14;101802.80;;;9.44;100.00
37878;BME280;23715;53.652;8.516;2023-04-26T11:50:14;101811.20;;;8.76;100.00
37878;BME280;23715;53.652;8.516;2023-04-26T11:55:13;101818.09;;;8.73;100.00
37878;BME280;23715;53.652;8.516;2023-04-26T12:00:16;101818.85;;;8.83;100.00
37878;BME280;23715;53.652;8.516;2023-04-26T12:05:23;101815.53;;;9.28;100.00
37878;BME280;23715;53.652;8.516;2023-04-26T12:10:23;101828.98;;;8.63;100.00
37878;BME280;23715;53.652;8.516;2023-04-26T12:15:25;101823.28;;;9.25;100.00
37878;BME280;23715;53.652;8.516;2023-04-26T12:20:25;101840.55;;;9.14;100.00
37878;BME280;23715;53.652;8.516;2023-04-26T12:25:25;101840.50;;;9.01;100.00
37878;BME280;23715;53.652;8.516;2023-04-26T12:30:26;101837.72;;;8.81;100.00
37878;BME280;23715;53.652;8.516;2023-04-26T12:35:27;101836.62;;;9.19;100.00
37878;BME280;23715;53.652;8.516;2023-04-26T12:40:27;101835.35;;;9.32;100.00
37878;BME280;23715;53.652;8.516;2023-04-26T12:45:27;101834.33;;;9.21;100.00
37878;BME280;23715;53.652;8.516;2023-04-26T12:50:26;101857.72;;;8.61;100.00
37878;BME280;23715;53.652;8.516;2023-04-26T12:55:26;101851.97;;;8.53;100.00
37878;BME280;23715;53.652;8.516;2023-04-26T13:00:25;101866.44;;;8.20;100.00
37878;BME280;23715;53.652;8.516;2023-04-26T13:05:24;101858.20;;;8.60;100.00
37878;BME280;23715;53.652;8.516;2023-04-26T13:10:24;101858.19;;;8.53;100.00
37878;BME280;23715;53.652;8.516;2023-04-26T13:15:24;101862.77;;;8.44;100.00
37878;BME280;23715;53.652;8.516;2023-04-26T13:20:24;101845.16;;;9.61;100.00
37878;BME280;23715;53.652;8.516;2023-04-26T13:25:24;101862.11;;;9.19;100.00
37878;BME280;23715;53.652;8.516;2023-04-26T13:30:23;101862.72;;;8.96;100.00
37878;BME280;23715;53.652;8.516;2023-04-26T13:35:23;101881.51;;;8.37;100.00
37878;BME280;23715;53.652;8.516;2023-04-26T13:40:23;101876.95;;;8.23;100.00
37878;BME280;23715;53.652;8.516;2023-04-26T13:45:23;101876.08;;;8.46;100.00
37878;BME280;23715;53.652;8.516;2023-04-26T13:50:22;101875.04;;;8.55;100.00
37878;BME280;23715;53.652;8.516;2023-04-26T13:55:22;101881.77;;;8.32;100.00
37878;BME280;23715;53.652;8.516;2023-04-26T14:00:21;101885.87;;;8.31;100.00
37878;BME280;23715;53.652;8.516;2023-04-26T14:05:21;101880.70;;;8.51;100.00
37878;BME280;23715;53.652;8.516;2023-04-26T14:10:20;101877.94;;;8.36;100.00
37878;BME280;23715;53.652;8.516;2023-04-26T14:15:20;101882.78;;;8.46;100.00
37878;BME280;23715;53.652;8.516;2023-04-26T14:20:21;101889.21;;;8.20;100.00
37878;BME280;23715;53.652;8.516;2023-04-26T14:25:20;101895.77;;;8.37;100.00
37878;BME280;23715;53.652;8.516;2023-04-26T14:30:20;101901.73;;;8.12;100.00
37878;BME280;23715;53.652;8.516;2023-04-26T14:35:19;101906.60;;;8.81;100.00
37878;BME280;23715;53.652;8.516;2023-04-26T14:40:19;101910.79;;;8.70;100.00
37878;BME280;23715;53.652;8.516;2023-04-26T14:45:18;101912.58;;;8.55;100.00
37878;BME280;23715;53.652;8.516;2023-04-26T14:50:18;101896.05;;;9.13;100.00
37878;BME280;23715;53.652;8.516;2023-04-26T14:55:18;101902.27;;;8.64;100.00
37878;BME280;23715;53.652;8.516;2023-04-26T15:00:19;101904.38;;;9.37;100.00
37878;BME280;23715;53.652;8.516;2023-04-26T15:05:20;101906.02;;;8.75;100.00
37878;BME280;23715;53.652;8.516;2023-04-26T15:10:21;101902.13;;;8.20;100.00
37878;BME280;23715;53.652;8.516;2023-04-26T15:15:21;101894.16;;;8.94;100.00
37878;BME280;23715;53.652;8.516;2023-04-26T15:20:20;101901.08;;;8.53;100.00
37878;BME280;23715;53.652;8.516;2023-04-26T15:25:19;101898.36;;;8.91;100.00
37878;BME280;23715;53.652;8.516;2023-04-26T15:30:20;101892.41;;;8.71;100.00
37878;BME280;23715;53.652;8.516;2023-04-26T15:35:19;101890.06;;;8.44;100.00
37878;BME280;23715;53.652;8.516;2023-04-26T15:40:19;101905.27;;;7.90;100.00
37878;BME280;23715;53.652;8.516;2023-04-26T15:45:19;101898.89;;;8.53;100.00
37878;BME280;23715;53.652;8.516;2023-04-26T15:50:19;101903.42;;;8.74;100.00
37878;BME280;23715;53.652;8.516;2023-04-26T15:55:20;101903.25;;;8.77;100.00
37878;BME280;23715;53.652;8.516;2023-04-26T16:00:20;101891.84;;;8.73;100.00
37878;BME280;23715;53.652;8.516;2023-04-26T16:05:22;101899.09;;;8.57;100.00
37878;BME280;23715;53.652;8.516;2023-04-26T16:10:20;101908.89;;;8.65;100.00
37878;BME280;23715;53.652;8.516;2023-04-26T16:15:21;101899.48;;;8.58;100.00
37878;BME280;23715;53.652;8.516;2023-04-26T16:20:20;101898.56;;;8.13;100.00
37878;BME280;23715;53.652;8.516;2023-04-26T16:25:20;101910.66;;;7.81;100.00
37878;BME280;23715;53.652;8.516;2023-04-26T16:30:19;101903.31;;;8.08;100.00
37878;BME280;23715;53.652;8.516;2023-04-26T16:35:19;101892.51;;;8.39;100.00
37878;BME280;23715;53.652;8.516;2023-04-26T16:40:19;101896.14;;;8.62;100.00
37878;BME280;23715;53.652;8.516;2023-04-26T16:45:19;101897.63;;;8.14;100.00
37878;BME280;23715;53.652;8.516;2023-04-26T16:50:18;101893.33;;;7.95;100.00
37878;BME280;23715;53.652;8.516;2023-04-26T16:55:18;101893.23;;;8.20;100.00
37878;BME280;23715;53.652;8.516;2023-04-26T17:00:17;101899.25;;;7.93;100.00
37878;BME280;23715;53.652;8.516;2023-04-26T17:05:17;101899.13;;;7.72;100.00
37878;BME280;23715;53.652;8.516;2023-04-26T17:10:16;101897.80;;;7.72;100.00
37878;BME280;23715;53.652;8.516;2023-04-26T17:15:16;101902.79;;;7.94;100.00
37878;BME280;23715;53.652;8.516;2023-04-26T17:20:15;101895.52;;;7.96;100.00
37878;BME280;23715;53.652;8.516;2023-04-26T17:25:15;101893.58;;;7.91;100.00
37878;BME280;23715;53.652;8.516;2023-04-26T17:30:15;101893.93;;;8.54;100.00
37878;BME280;23715;53.652;8.516;2023-04-26T17:35:14;101908.55;;;7.79;100.00
37878;BME280;23715;53.652;8.516;2023-04-26T17:40:16;101913.70;;;7.75;100.00
37878;BME280;23715;53.652;8.516;2023-04-26T17:45:16;101913.46;;;7.87;100.00
37878;BME280;23715;53.652;8.516;2023-04-26T17:50:18;101908.06;;;7.79;100.00
37878;BME280;23715;53.652;8.516;2023-04-26T17:55:20;101910.05;;;7.92;100.00
37878;BME280;23715;53.652;8.516;2023-04-26T18:00:20;101920.73;;;7.37;100.00
37878;BME280;23715;53.652;8.516;2023-04-26T18:05:20;101915.86;;;7.36;100.00
37878;BME280;23715;53.652;8.516;2023-04-26T18:10:21;101917.63;;;7.45;100.00
37878;BME280;23715;53.652;8.516;2023-04-26T18:15:21;101919.17;;;7.33;100.00
37878;BME280;23715;53.652;8.516;2023-04-26T18:20:21;101925.67;;;7.36;100.00
37878;BME280;23715;53.652;8.516;2023-04-26T18:25:20;101921.94;;;7.95;100.00
37878;BME280;23715;53.652;8.516;2023-04-26T18:30:20;101932.34;;;7.45;100.00
37878;BME280;23715;53.652;8.516;2023-04-26T18:35:19;101933.80;;;7.59;100.00
37878;BME280;23715;53.652;8.516;2023-04-26T18:40:19;101941.52;;;7.32;100.00
37878;BME280;23715;53.652;8.516;2023-04-26T18:45:19;101944.19;;;7.32;100.00
37878;BME280;23715;53.652;8.516;2023-04-26T18:50:18;101936.27;;;7.94;100.00
37878;BME280;23715;53.652;8.516;2023-04-26T18:55:18;101943.19;;;7.50;100.00
37878;BME280;23715;53.652;8.516;2023-04-26T19:00:18;101947.82;;;7.06;100.00
37878;BME280;23715;53.652;8.516;2023-04-26T19:05:17;101943.26;;;7.33;100.00
37878;BME280;23715;53.652;8.516;2023-04-26T19:10:17;101947.64;;;7.09;100.00
37878;BME280;23715;53.652;8.516;2023-04-26T19:16:00;101955.67;;;7.34;100.00
37878;BME280;23715;53.652;8.516;2023-04-26T19:20:27;101946.29;;;7.58;100.00
37878;BME280;23715;53.652;8.516;2023-04-26T19:30:55;101958.69;;;7.52;100.00
37878;BME280;23715;53.652;8.516;2023-04-26T19:36:01;101960.03;;;7.28;100.00
37878;BME280;23715;53.652;8.516;2023-04-26T19:41:08;101964.83;;;6.88;100.00
37878;BME280;23715;53.652;8.516;2023-04-26T19:51:50;101958.48;;;7.39;100.00
37878;BME280;23715;53.652;8.516;2023-04-26T19:56:26;101967.28;;;7.50;100.00
37878;BME280;23715;53.652;8.516;2023-04-26T20:01:25;101963.47;;;7.38;100.00
37878;BME280;23715;53.652;8.516;2023-04-26T20:06:25;101974.64;;;7.13;100.00
37878;BME280;23715;53.652;8.516;2023-04-26T20:11:24;101993.36;;;6.96;100.00
37878;BME280;23715;53.652;8.516;2023-04-26T20:16:24;101986.72;;;7.70;100.00
37878;BME280;23715;53.652;8.516;2023-04-26T20:21:23;101977.82;;;7.85;100.00
37878;BME280;23715;53.652;8.516;2023-04-26T20:26:24;101985.06;;;7.76;100.00
37878;BME280;23715;53.652;8.516;2023-04-26T20:31:24;101990.22;;;7.79;100.00
37878;BME280;23715;53.652;8.516;2023-04-26T20:36:23;101990.33;;;7.93;100.00
37878;BME280;23715;53.652;8.516;2023-04-26T20:41:23;101991.15;;;8.03;100.00
37878;BME280;23715;53.652;8.516;2023-04-26T20:46:23;101985.68;;;8.20;100.00
37878;BME280;23715;53.652;8.516;2023-04-26T20:51:22;101984.66;;;8.46;100.00
37878;BME280;23715;53.652;8.516;2023-04-26T20:56:22;101974.59;;;8.26;100.00
37878;BME280;23715;53.652;8.516;2023-04-26T21:01:21;101995.20;;;7.78;100.00
37878;BME280;23715;53.652;8.516;2023-04-26T21:06:21;101999.20;;;6.69;100.00
37878;BME280;23715;53.652;8.516;2023-04-26T21:11:21;101999.80;;;6.31;100.00
37878;BME280;23715;53.652;8.516;2023-04-26T21:16:21;101994.81;;;6.51;100.00
37878;BME280;23715;53.652;8.516;2023-04-26T21:21:22;101997.39;;;6.78;100.00
37878;BME280;23715;53.652;8.516;2023-04-26T21:26:21;102000.77;;;6.73;100.00
37878;BME280;23715;53.652;8.516;2023-04-26T21:31:21;102001.78;;;6.44;100.00
37878;BME280;23715;53.652;8.516;2023-04-26T21:36:20;102008.12;;;6.33;100.00
37878;BME280;23715;53.652;8.516;2023-04-26T21:41:20;102015.71;;;6.51;100.00
37878;BME280;23715;53.652;8.516;2023-04-26T21:46:20;102011.89;;;6.29;100.00
37878;BME280;23715;53.652;8.516;2023-04-26T21:51:20;102008.17;;;6.51;100.00
37878;BME280;23715;53.652;8.516;2023-04-26T21:56:19;102007.47;;;6.64;100.00
37878;BME280;23715;53.652;8.516;2023-04-26T22:01:19;102016.00;;;6.36;100.00
37878;BME280;23715;53.652;8.516;2023-04-26T22:06:20;102011.30;;;6.68;100.00
37878;BME280;23715;53.652;8.516;2023-04-26T22:11:20;102007.22;;;7.04;100.00
37878;BME280;23715;53.652;8.516;2023-04-26T22:16:19;101999.34;;;7.01;100.00
37878;BME280;23715;53.652;8.516;2023-04-26T22:21:19;102002.69;;;7.31;100.00
37878;BME280;23715;53.652;8.516;2023-04-26T22:26:19;102004.34;;;7.74;100.00
37878;BME280;23715;53.652;8.516;2023-04-26T22:31:19;102014.89;;;7.77;100.00
37878;BME280;23715;53.652;8.516;2023-04-26T22:36:18;102024.42;;;7.49;100.00
37878;BME280;23715;53.652;8.516;2023-04-26T22:41:18;102026.60;;;7.58;100.00
37878;BME280;23715;53.652;8.516;2023-04-26T22:46:17;102022.09;;;7.68;100.00
37878;BME280;23715;53.652;8.516;2023-04-26T22:51:17;102028.33;;;7.84;100.00
37878;BME280;23715;53.652;8.516;2023-04-26T22:56:16;102030.33;;;7.72;100.00
37878;BME280;23715;53.652;8.516;2023-04-26T23:01:15;102037.25;;;7.27;100.00
37878;BME280;23715;53.652;8.516;2023-04-26T23:06:17;102046.16;;;7.01;100.00
37878;BME280;23715;53.652;8.516;2023-04-26T23:11:16;102052.98;;;6.98;100.00
37878;BME280;23715;53.652;8.516;2023-04-26T23:16:16;102053.94;;;6.88;100.00
37878;BME280;23715;53.652;8.516;2023-04-26T23:21:16;102048.48;;;7.24;100.00
37878;BME280;23715;53.652;8.516;2023-04-26T23:26:15;102037.73;;;7.17;100.00
37878;BME280;23715;53.652;8.516;2023-04-26T23:31:15;102036.11;;;7.64;100.00
37878;BME280;23715;53.652;8.516;2023-04-26T23:36:14;102051.28;;;6.34;100.00
37878;BME280;23715;53.652;8.516;2023-04-26T23:41:14;102045.02;;;6.44;100.00
37878;BME280;23715;53.652;8.516;2023-04-26T23:46:13;102042.96;;;6.40;100.00
37878;BME280;23715;53.652;8.516;2023-04-26T23:51:13;102046.38;;;6.25;100.00
37878;BME280;23715;53.652;8.516;2023-04-26T23:56:12;102049.05;;;6.25;100.00
